MiSS Niz — WDF2697 — position and weather

sailwx.info

Track history (hours):
 
Tides and Currents Weather Stations Pressure Air Temp Water Temp Dewpoint Dewpoint Depression Visibility Wind Speed Wind Dir Waves Ship Positions

MiSS Niz

Owner: Marquette Transportation Company Offshore LLC, Jefferson, LA. More information available from US FCC via Universal Licensing System and Coast Guard Vessel Documentation Center.

Last reported at 2017-Dec-10 01:01 UTC. Time now 2017-Dec-12 06:26 UTC.
Position N 25°38' W 080°03'.

Length 22 m; draft 2.5 m.

Type: Tug. MMSI: 367430850.

Date/timePositionNaut miles runAvg speedWind from/ knotsBaromVisibWave heightAir tempDewpointWater temp
2017-Dec-10 01:01N 25°38' W 080°03'1 5.5
2017-Dec-10 00:52N 25°39' W 080°03'2 5.7
2017-Dec-10 00:29N 25°41' W 080°03'3 6.1
2017-Dec-10 00:00N 25°44' W 080°03'3 6.4
2017-Dec-09 23:30N 25°47' W 080°03'3 6.3
2017-Dec-09 23:00N 25°50' W 080°03'3 6.6
2017-Dec-09 22:30N 25°53' W 080°03'3 6.9
2017-Dec-09 22:00N 25°57' W 080°04'3 6.9
2017-Dec-09 21:30N 26°00' W 080°03'3 6.9
2017-Dec-09 21:00N 26°04' W 080°03'3 6.9
2017-Dec-09 20:30N 26°07' W 080°03'4 7.5
2017-Dec-09 20:00N 26°11' W 080°02'4 8.2
2017-Dec-09 19:30N 26°15' W 080°02'4 8.8
2017-Dec-09 19:00N 26°19' W 080°02'4 8.6
2017-Dec-09 18:30N 26°23' W 080°02'4 8.0
2017-Dec-09 18:00N 26°27' W 080°01'4 7.5
2017-Dec-09 17:30N 26°31' W 080°01'7 7.3
2017-Dec-09 16:34N 26°38' W 080°01'1 6.9
2017-Dec-09 16:25N 26°39' W 080°00'3 6.7
2017-Dec-09 16:00N 26°42' W 080°00'3 6.3
2017-Dec-09 15:30N 26°45' W 079°59'3 5.6
2017-Dec-09 15:00N 26°48' W 079°59'3 6.1
2017-Dec-09 14:30N 26°51' W 079°59'3 6.7
2017-Dec-09 14:00N 26°54' W 080°00'3 6.5
2017-Dec-09 13:30N 26°57' W 080°01'3 6.1
2017-Dec-09 13:00N 27°00' W 080°01'  
2017-Dec-03 14:08N 27°03' W 079°58'2 7.0
2017-Dec-03 13:50N 27°01' W 079°57'2 6.9
2017-Dec-03 13:30N 26°59' W 079°57'3 6.9
2017-Dec-03 13:00N 26°55' W 079°57'3 6.7
2017-Dec-03 12:30N 26°52' W 079°58'3 6.5
2017-Dec-03 12:00N 26°48' W 079°57'3 6.4
2017-Dec-03 11:30N 26°45' W 079°57'3 6.3
2017-Dec-03 11:01N 26°42' W 079°57'3 6.2
2017-Dec-03 10:30N 26°39' W 079°57'3 6.0
2017-Dec-03 10:00N 26°36' W 079°57'20 6.1
2017-Dec-03 06:42N 26°16' W 079°60'1 6.2
2017-Dec-03 06:30N 26°15' W 079°60'3 6.1
2017-Dec-03 06:00N 26°12' W 080°00'3 6.0
2017-Dec-03 05:30N 26°09' W 080°00'3 5.7
2017-Dec-03 05:00N 26°06' W 080°00'3 5.8
2017-Dec-03 04:30N 26°03' W 080°01'3 6.1
2017-Dec-03 04:00N 26°00' W 080°01'3 6.3
2017-Dec-03 03:30N 25°57' W 080°01'3 6.5
2017-Dec-03 03:00N 25°54' W 080°02'3 6.4
2017-Dec-03 02:30N 25°51' W 080°02'3 6.6
2017-Dec-03 02:00N 25°47' W 080°02'3 6.8
2017-Dec-03 01:30N 25°44' W 080°02'4 7.0
2017-Dec-03 01:00N 25°40' W 080°02'4 7.3
2017-Dec-03 00:30N 25°37' W 080°02'  
Track history (hours):
 
Tides and Currents Weather Stations Pressure Air Temp Water Temp Dewpoint Dewpoint Depression Visibility Wind Speed Wind Dir Waves Ship Positions

MiSS Niz

Owner: Marquette Transportation Company Offshore LLC, Jefferson, LA. More information available from US FCC via Universal Licensing System and Coast Guard Vessel Documentation Center.

Last reported at 2017-Dec-10 01:01 UTC. Time now 2017-Dec-12 06:26 UTC.
Position N 25°38' W 080°03'.

Length 22 m; draft 2.5 m.

Type: Tug. MMSI: 367430850.

Date/timePositionNaut miles runAvg speedWind from/ knotsBaromVisibWave heightAir tempDewpointWater temp
2017-Dec-10 01:01N 25°38' W 080°03'1 5.5
2017-Dec-10 00:52N 25°39' W 080°03'2 5.7
2017-Dec-10 00:29N 25°41' W 080°03'3 6.1
2017-Dec-10 00:00N 25°44' W 080°03'3 6.4
2017-Dec-09 23:30N 25°47' W 080°03'3 6.3
2017-Dec-09 23:00N 25°50' W 080°03'3 6.6
2017-Dec-09 22:30N 25°53' W 080°03'3 6.9
2017-Dec-09 22:00N 25°57' W 080°04'3 6.9
2017-Dec-09 21:30N 26°00' W 080°03'3 6.9
2017-Dec-09 21:00N 26°04' W 080°03'3 6.9
2017-Dec-09 20:30N 26°07' W 080°03'4 7.5
2017-Dec-09 20:00N 26°11' W 080°02'4 8.2
2017-Dec-09 19:30N 26°15' W 080°02'4 8.8
2017-Dec-09 19:00N 26°19' W 080°02'4 8.6
2017-Dec-09 18:30N 26°23' W 080°02'4 8.0
2017-Dec-09 18:00N 26°27' W 080°01'4 7.5
2017-Dec-09 17:30N 26°31' W 080°01'7 7.3
2017-Dec-09 16:34N 26°38' W 080°01'1 6.9
2017-Dec-09 16:25N 26°39' W 080°00'3 6.7
2017-Dec-09 16:00N 26°42' W 080°00'3 6.3
2017-Dec-09 15:30N 26°45' W 079°59'3 5.6
2017-Dec-09 15:00N 26°48' W 079°59'3 6.1
2017-Dec-09 14:30N 26°51' W 079°59'3 6.7
2017-Dec-09 14:00N 26°54' W 080°00'3 6.5
2017-Dec-09 13:30N 26°57' W 080°01'3 6.1
2017-Dec-09 13:00N 27°00' W 080°01'  
2017-Dec-03 14:08N 27°03' W 079°58'2 7.0
2017-Dec-03 13:50N 27°01' W 079°57'2 6.9
2017-Dec-03 13:30N 26°59' W 079°57'3 6.9
2017-Dec-03 13:00N 26°55' W 079°57'3 6.7
2017-Dec-03 12:30N 26°52' W 079°58'3 6.5
2017-Dec-03 12:00N 26°48' W 079°57'3 6.4
2017-Dec-03 11:30N 26°45' W 079°57'3 6.3
2017-Dec-03 11:01N 26°42' W 079°57'3 6.2
2017-Dec-03 10:30N 26°39' W 079°57'3 6.0
2017-Dec-03 10:00N 26°36' W 079°57'20 6.1
2017-Dec-03 06:42N 26°16' W 079°60'1 6.2
2017-Dec-03 06:30N 26°15' W 079°60'3 6.1
2017-Dec-03 06:00N 26°12' W 080°00'3 6.0
2017-Dec-03 05:30N 26°09' W 080°00'3 5.7
2017-Dec-03 05:00N 26°06' W 080°00'3 5.8
2017-Dec-03 04:30N 26°03' W 080°01'3 6.1
2017-Dec-03 04:00N 26°00' W 080°01'3 6.3
2017-Dec-03 03:30N 25°57' W 080°01'3 6.5
2017-Dec-03 03:00N 25°54' W 080°02'3 6.4
2017-Dec-03 02:30N 25°51' W 080°02'3 6.6
2017-Dec-03 02:00N 25°47' W 080°02'3 6.8
2017-Dec-03 01:30N 25°44' W 080°02'4 7.0
2017-Dec-03 01:00N 25°40' W 080°02'4 7.3
2017-Dec-03 00:30N 25°37' W 080°02'  

Dump ship's entire track history